sensor_id;sensor_type;location;lat;lon;timestamp;P1;durP1;ratioP1;P2;durP2;ratioP2
68938;SDS011;59064;45.294;11.816;2024-03-23T00:56:04;36.70;;;22.60;;
68938;SDS011;59064;45.294;11.816;2024-03-23T00:58:30;37.00;;;22.90;;
68938;SDS011;59064;45.294;11.816;2024-03-23T01:00:55;36.60;;;21.90;;
68938;SDS011;59064;45.294;11.816;2024-03-23T01:03:21;37.70;;;23.30;;
68938;SDS011;59064;45.294;11.816;2024-03-23T01:05:46;37.60;;;22.80;;
68938;SDS011;59064;45.294;11.816;2024-03-23T01:08:14;38.00;;;23.70;;
68938;SDS011;59064;45.294;11.816;2024-03-23T01:10:40;40.20;;;24.70;;
68938;SDS011;59064;45.294;11.816;2024-03-23T01:13:05;40.70;;;25.80;;
68938;SDS011;59064;45.294;11.816;2024-03-23T01:15:31;40.60;;;25.00;;
68938;SDS011;59064;45.294;11.816;2024-03-23T01:17:57;38.80;;;24.20;;
68938;SDS011;59064;45.294;11.816;2024-03-23T01:20:22;38.70;;;23.90;;
68938;SDS011;59064;45.294;11.816;2024-03-23T01:22:48;39.20;;;25.20;;
68938;SDS011;59064;45.294;11.816;2024-03-23T01:25:13;43.30;;;25.10;;
68938;SDS011;59064;45.294;11.816;2024-03-23T01:27:39;38.30;;;24.00;;
68938;SDS011;59064;45.294;11.816;2024-03-23T01:30:05;42.30;;;24.70;;
68938;SDS011;59064;45.294;11.816;2024-03-23T01:32:32;40.80;;;25.10;;
68938;SDS011;59064;45.294;11.816;2024-03-23T01:34:58;37.80;;;25.30;;
68938;SDS011;59064;45.294;11.816;2024-03-23T01:37:23;45.00;;;25.30;;
68938;SDS011;59064;45.294;11.816;2024-03-23T01:39:49;41.90;;;25.10;;
68938;SDS011;59064;45.294;11.816;2024-03-23T01:42:14;63.10;;;40.60;;
68938;SDS011;59064;45.294;11.816;2024-03-23T01:44:40;53.40;;;33.30;;
68938;SDS011;59064;45.294;11.816;2024-03-23T01:47:06;45.80;;;28.00;;
68938;SDS011;59064;45.294;11.816;2024-03-23T01:49:32;47.40;;;27.60;;
68938;SDS011;59064;45.294;11.816;2024-03-23T01:51:58;56.90;;;34.90;;
68938;SDS011;59064;45.294;11.816;2024-03-23T01:54:25;44.20;;;27.00;;
68938;SDS011;59064;45.294;11.816;2024-03-23T01:56:50;38.20;;;23.10;;
68938;SDS011;59064;45.294;11.816;2024-03-23T01:59:16;36.80;;;20.90;;
68938;SDS011;59064;45.294;11.816;2024-03-23T02:01:42;36.30;;;20.30;;
68938;SDS011;59064;45.294;11.816;2024-03-23T02:04:07;36.50;;;21.30;;
68938;SDS011;59064;45.294;11.816;2024-03-23T02:06:34;33.90;;;18.10;;
68938;SDS011;59064;45.294;11.816;2024-03-23T02:09:00;30.60;;;18.30;;
68938;SDS011;59064;45.294;11.816;2024-03-23T02:11:26;27.80;;;17.70;;
68938;SDS011;59064;45.294;11.816;2024-03-23T02:13:51;35.70;;;20.70;;
68938;SDS011;59064;45.294;11.816;2024-03-23T02:16:17;42.30;;;26.20;;
68938;SDS011;59064;45.294;11.816;2024-03-23T02:18:43;44.40;;;26.40;;
68938;SDS011;59064;45.294;11.816;2024-03-23T02:21:08;44.00;;;25.70;;
68938;SDS011;59064;45.294;11.816;2024-03-23T02:23:34;44.20;;;25.90;;
68938;SDS011;59064;45.294;11.816;2024-03-23T02:25:59;37.70;;;23.90;;
68938;SDS011;59064;45.294;11.816;2024-03-23T02:28:25;33.90;;;22.00;;
68938;SDS011;59064;45.294;11.816;2024-03-23T02:30:50;34.90;;;21.70;;
68938;SDS011;59064;45.294;11.816;2024-03-23T02:33:17;36.20;;;22.10;;
68938;SDS011;59064;45.294;11.816;2024-03-23T02:35:45;34.00;;;20.90;;
68938;SDS011;59064;45.294;11.816;2024-03-23T02:38:11;36.50;;;22.40;;
68938;SDS011;59064;45.294;11.816;2024-03-23T02:40:37;36.30;;;23.90;;
68938;SDS011;59064;45.294;11.816;2024-03-23T02:43:03;38.60;;;22.00;;
68938;SDS011;59064;45.294;11.816;2024-03-23T02:45:29;44.80;;;25.70;;
68938;SDS011;59064;45.294;11.816;2024-03-23T02:47:55;43.30;;;26.50;;
68938;SDS011;59064;45.294;11.816;2024-03-23T02:50:20;44.00;;;26.30;;
68938;SDS011;59064;45.294;11.816;2024-03-23T02:52:47;41.60;;;26.00;;
68938;SDS011;59064;45.294;11.816;2024-03-23T02:55:13;42.50;;;26.50;;
68938;SDS011;59064;45.294;11.816;2024-03-23T02:57:40;42.80;;;27.20;;
68938;SDS011;59064;45.294;11.816;2024-03-23T03:00:06;43.40;;;27.10;;
68938;SDS011;59064;45.294;11.816;2024-03-23T03:02:33;43.70;;;28.00;;
68938;SDS011;59064;45.294;11.816;2024-03-23T03:04:58;44.20;;;27.70;;
68938;SDS011;59064;45.294;11.816;2024-03-23T03:07:24;46.40;;;28.10;;
68938;SDS011;59064;45.294;11.816;2024-03-23T03:09:50;45.10;;;28.10;;
68938;SDS011;59064;45.294;11.816;2024-03-23T03:12:15;47.40;;;28.50;;
68938;SDS011;59064;45.294;11.816;2024-03-23T03:14:41;46.20;;;28.90;;
68938;SDS011;59064;45.294;11.816;2024-03-23T03:17:06;47.20;;;29.60;;
68938;SDS011;59064;45.294;11.816;2024-03-23T03:19:32;51.70;;;31.30;;
68938;SDS011;59064;45.294;11.816;2024-03-23T03:21:58;41.70;;;27.40;;
68938;SDS011;59064;45.294;11.816;2024-03-23T03:24:23;47.10;;;28.80;;
68938;SDS011;59064;45.294;11.816;2024-03-23T03:26:49;39.40;;;25.10;;
68938;SDS011;59064;45.294;11.816;2024-03-23T03:29:15;48.10;;;29.90;;
68938;SDS011;59064;45.294;11.816;2024-03-23T03:31:42;55.50;;;31.60;;
68938;SDS011;59064;45.294;11.816;2024-03-23T03:34:08;52.40;;;31.80;;
68938;SDS011;59064;45.294;11.816;2024-03-23T03:36:34;57.40;;;33.00;;
68938;SDS011;59064;45.294;11.816;2024-03-23T03:38:59;46.70;;;28.50;;
68938;SDS011;59064;45.294;11.816;2024-03-23T03:41:25;43.30;;;27.60;;
68938;SDS011;59064;45.294;11.816;2024-03-23T03:43:51;51.30;;;29.90;;
68938;SDS011;59064;45.294;11.816;2024-03-23T03:46:16;50.90;;;31.10;;
68938;SDS011;59064;45.294;11.816;2024-03-23T03:48:42;50.20;;;31.10;;
68938;SDS011;59064;45.294;11.816;2024-03-23T03:51:10;56.00;;;31.70;;
68938;SDS011;59064;45.294;11.816;2024-03-23T03:53:35;75.60;;;44.10;;
68938;SDS011;59064;45.294;11.816;2024-03-23T03:56:01;57.50;;;38.10;;
68938;SDS011;59064;45.294;11.816;2024-03-23T03:58:28;55.20;;;36.80;;
68938;SDS011;59064;45.294;11.816;2024-03-23T04:00:53;52.50;;;33.20;;
68938;SDS011;59064;45.294;11.816;2024-03-23T04:03:19;51.00;;;32.20;;
68938;SDS011;59064;45.294;11.816;2024-03-23T04:05:54;51.90;;;31.50;;
68938;SDS011;59064;45.294;11.816;2024-03-23T04:08:20;56.00;;;34.50;;
68938;SDS011;59064;45.294;11.816;2024-03-23T04:10:46;53.50;;;32.10;;
68938;SDS011;59064;45.294;11.816;2024-03-23T04:13:15;45.00;;;28.20;;
68938;SDS011;59064;45.294;11.816;2024-03-23T04:15:41;50.80;;;29.00;;
68938;SDS011;59064;45.294;11.816;2024-03-23T04:18:07;50.70;;;29.80;;
68938;SDS011;59064;45.294;11.816;2024-03-23T04:20:33;51.90;;;31.00;;
68938;SDS011;59064;45.294;11.816;2024-03-23T04:22:59;43.20;;;25.20;;
68938;SDS011;59064;45.294;11.816;2024-03-23T04:25:25;45.80;;;27.20;;
68938;SDS011;59064;45.294;11.816;2024-03-23T04:27:50;44.80;;;25.90;;
68938;SDS011;59064;45.294;11.816;2024-03-23T04:30:17;44.10;;;26.20;;
68938;SDS011;59064;45.294;11.816;2024-03-23T04:32:43;43.60;;;27.70;;
68938;SDS011;59064;45.294;11.816;2024-03-23T04:35:08;43.90;;;27.10;;
68938;SDS011;59064;45.294;11.816;2024-03-23T04:37:37;45.20;;;26.70;;
68938;SDS011;59064;45.294;11.816;2024-03-23T04:40:06;49.50;;;27.40;;
68938;SDS011;59064;45.294;11.816;2024-03-23T04:42:32;49.30;;;29.00;;
68938;SDS011;59064;45.294;11.816;2024-03-23T04:44:59;46.60;;;28.40;;
68938;SDS011;59064;45.294;11.816;2024-03-23T04:47:25;44.30;;;26.10;;
68938;SDS011;59064;45.294;11.816;2024-03-23T04:49:51;41.70;;;26.80;;
68938;SDS011;59064;45.294;11.816;2024-03-23T04:52:17;44.90;;;27.80;;
68938;SDS011;59064;45.294;11.816;2024-03-23T04:54:43;45.90;;;26.70;;
68938;SDS011;59064;45.294;11.816;2024-03-23T04:57:09;47.10;;;28.10;;
68938;SDS011;59064;45.294;11.816;2024-03-23T04:59:34;50.10;;;28.70;;
68938;SDS011;59064;45.294;11.816;2024-03-23T05:02:00;47.40;;;28.80;;
68938;SDS011;59064;45.294;11.816;2024-03-23T05:04:27;45.60;;;28.90;;
68938;SDS011;59064;45.294;11.816;2024-03-23T05:06:52;43.20;;;27.30;;
68938;SDS011;59064;45.294;11.816;2024-03-23T05:09:18;46.70;;;27.60;;
68938;SDS011;59064;45.294;11.816;2024-03-23T05:11:45;44.30;;;26.40;;
68938;SDS011;59064;45.294;11.816;2024-03-23T05:14:14;41.10;;;24.00;;
68938;SDS011;59064;45.294;11.816;2024-03-23T05:16:40;38.70;;;24.10;;
68938;SDS011;59064;45.294;11.816;2024-03-23T05:19:06;42.30;;;26.40;;
68938;SDS011;59064;45.294;11.816;2024-03-23T05:21:32;41.30;;;23.90;;
68938;SDS011;59064;45.294;11.816;2024-03-23T05:23:57;42.20;;;24.90;;
68938;SDS011;59064;45.294;11.816;2024-03-23T05:26:23;44.70;;;26.00;;
68938;SDS011;59064;45.294;11.816;2024-03-23T05:28:49;42.10;;;25.20;;
68938;SDS011;59064;45.294;11.816;2024-03-23T05:31:28;43.90;;;26.00;;
68938;SDS011;59064;45.294;11.816;2024-03-23T05:33:55;45.50;;;26.60;;
68938;SDS011;59064;45.294;11.816;2024-03-23T05:36:21;44.50;;;26.90;;
68938;SDS011;59064;45.294;11.816;2024-03-23T05:38:47;44.80;;;28.10;;
68938;SDS011;59064;45.294;11.816;2024-03-23T05:41:13;44.20;;;27.70;;
68938;SDS011;59064;45.294;11.816;2024-03-23T05:43:39;46.20;;;26.60;;
68938;SDS011;59064;45.294;11.816;2024-03-23T05:46:05;46.80;;;26.70;;
68938;SDS011;59064;45.294;11.816;2024-03-23T05:48:31;43.80;;;26.70;;
68938;SDS011;59064;45.294;11.816;2024-03-23T05:50:57;41.90;;;26.60;;
68938;SDS011;59064;45.294;11.816;2024-03-23T05:53:23;40.60;;;25.40;;
68938;SDS011;59064;45.294;11.816;2024-03-23T05:55:50;39.90;;;25.50;;
68938;SDS011;59064;45.294;11.816;2024-03-23T05:58:18;40.70;;;25.90;;
68938;SDS011;59064;45.294;11.816;2024-03-23T06:00:45;42.50;;;25.70;;
68938;SDS011;59064;45.294;11.816;2024-03-23T06:03:11;36.60;;;23.10;;
68938;SDS011;59064;45.294;11.816;2024-03-23T06:05:37;40.80;;;23.80;;
68938;SDS011;59064;45.294;11.816;2024-03-23T06:08:04;42.30;;;25.50;;
68938;SDS011;59064;45.294;11.816;2024-03-23T06:10:30;45.50;;;25.40;;
68938;SDS011;59064;45.294;11.816;2024-03-23T06:12:57;39.00;;;25.40;;
68938;SDS011;59064;45.294;11.816;2024-03-23T06:15:24;39.90;;;25.30;;
68938;SDS011;59064;45.294;11.816;2024-03-23T06:17:50;42.90;;;24.70;;
68938;SDS011;59064;45.294;11.816;2024-03-23T06:20:15;39.40;;;23.70;;
68938;SDS011;59064;45.294;11.816;2024-03-23T06:22:41;37.40;;;23.50;;
68938;SDS011;59064;45.294;11.816;2024-03-23T06:25:07;39.60;;;23.20;;
68938;SDS011;59064;45.294;11.816;2024-03-23T06:27:33;39.60;;;24.20;;
68938;SDS011;59064;45.294;11.816;2024-03-23T06:29:59;38.70;;;25.00;;
68938;SDS011;59064;45.294;11.816;2024-03-23T06:32:25;38.70;;;25.10;;
68938;SDS011;59064;45.294;11.816;2024-03-23T06:34:51;39.40;;;26.40;;
68938;SDS011;59064;45.294;11.816;2024-03-23T06:37:17;39.90;;;26.00;;
68938;SDS011;59064;45.294;11.816;2024-03-23T06:39:42;41.40;;;26.70;;
68938;SDS011;59064;45.294;11.816;2024-03-23T06:42:08;41.10;;;26.50;;
68938;SDS011;59064;45.294;11.816;2024-03-23T06:44:34;45.10;;;29.10;;
68938;SDS011;59064;45.294;11.816;2024-03-23T06:46:59;44.00;;;27.60;;
68938;SDS011;59064;45.294;11.816;2024-03-23T06:49:25;39.90;;;26.60;;
68938;SDS011;59064;45.294;11.816;2024-03-23T06:51:51;49.60;;;29.60;;
68938;SDS011;59064;45.294;11.816;2024-03-23T06:54:20;48.00;;;32.30;;
68938;SDS011;59064;45.294;11.816;2024-03-23T06:56:45;48.10;;;29.60;;
68938;SDS011;59064;45.294;11.816;2024-03-23T06:59:11;47.70;;;30.90;;
68938;SDS011;59064;45.294;11.816;2024-03-23T07:01:37;48.20;;;33.40;;
68938;SDS011;59064;45.294;11.816;2024-03-23T07:04:04;49.30;;;32.70;;
68938;SDS011;59064;45.294;11.816;2024-03-23T07:06:31;47.90;;;32.20;;
68938;SDS011;59064;45.294;11.816;2024-03-23T07:08:57;47.90;;;30.50;;
68938;SDS011;59064;45.294;11.816;2024-03-23T07:11:22;45.90;;;30.10;;
68938;SDS011;59064;45.294;11.816;2024-03-23T07:13:53;43.70;;;31.60;;
68938;SDS011;59064;45.294;11.816;2024-03-23T07:16:22;42.80;;;29.60;;
68938;SDS011;59064;45.294;11.816;2024-03-23T07:18:49;50.30;;;33.30;;
68938;SDS011;59064;45.294;11.816;2024-03-23T07:21:15;51.00;;;33.70;;
68938;SDS011;59064;45.294;11.816;2024-03-23T07:23:44;50.30;;;34.70;;
68938;SDS011;59064;45.294;11.816;2024-03-23T07:26:10;46.30;;;31.50;;
68938;SDS011;59064;45.294;11.816;2024-03-23T07:28:36;47.70;;;31.70;;
68938;SDS011;59064;45.294;11.816;2024-03-23T07:31:04;48.50;;;32.50;;
68938;SDS011;59064;45.294;11.816;2024-03-23T07:33:31;47.60;;;33.50;;
68938;SDS011;59064;45.294;11.816;2024-03-23T07:35:57;44.00;;;31.00;;
68938;SDS011;59064;45.294;11.816;2024-03-23T07:38:26;46.60;;;32.70;;
68938;SDS011;59064;45.294;11.816;2024-03-23T07:41:02;47.80;;;32.80;;
68938;SDS011;59064;45.294;11.816;2024-03-23T07:43:29;48.60;;;31.90;;
68938;SDS011;59064;45.294;11.816;2024-03-23T07:45:54;51.20;;;36.00;;
68938;SDS011;59064;45.294;11.816;2024-03-23T07:48:21;51.00;;;36.60;;
68938;SDS011;59064;45.294;11.816;2024-03-23T07:51:02;47.30;;;33.00;;
68938;SDS011;59064;45.294;11.816;2024-03-23T07:53:32;46.00;;;33.00;;
68938;SDS011;59064;45.294;11.816;2024-03-23T07:56:05;48.00;;;33.70;;
68938;SDS011;59064;45.294;11.816;2024-03-23T07:58:32;48.40;;;32.30;;
68938;SDS011;59064;45.294;11.816;2024-03-23T08:01:08;49.00;;;32.40;;
68938;SDS011;59064;45.294;11.816;2024-03-23T08:03:40;45.50;;;32.60;;
68938;SDS011;59064;45.294;11.816;2024-03-23T08:08:33;52.00;;;35.30;;
68938;SDS011;59064;45.294;11.816;2024-03-23T08:10:59;45.20;;;33.30;;
68938;SDS011;59064;45.294;11.816;2024-03-23T08:13:26;46.00;;;31.80;;
68938;SDS011;59064;45.294;11.816;2024-03-23T08:15:51;44.20;;;32.00;;
68938;SDS011;59064;45.294;11.816;2024-03-23T08:18:17;46.30;;;34.00;;
68938;SDS011;59064;45.294;11.816;2024-03-23T08:20:43;47.20;;;32.70;;
68938;SDS011;59064;45.294;11.816;2024-03-23T08:23:08;40.40;;;31.00;;
68938;SDS011;59064;45.294;11.816;2024-03-23T08:25:34;46.90;;;32.10;;
68938;SDS011;59064;45.294;11.816;2024-03-23T08:28:00;46.20;;;33.00;;
68938;SDS011;59064;45.294;11.816;2024-03-23T08:30:26;42.60;;;31.90;;
68938;SDS011;59064;45.294;11.816;2024-03-23T08:32:53;46.60;;;33.90;;
68938;SDS011;59064;45.294;11.816;2024-03-23T08:35:18;44.50;;;31.80;;
68938;SDS011;59064;45.294;11.816;2024-03-23T08:37:45;43.80;;;30.90;;
68938;SDS011;59064;45.294;11.816;2024-03-23T08:40:11;40.60;;;28.80;;
68938;SDS011;59064;45.294;11.816;2024-03-23T08:42:36;45.40;;;32.80;;
68938;SDS011;59064;45.294;11.816;2024-03-23T08:45:02;35.50;;;26.30;;
68938;SDS011;59064;45.294;11.816;2024-03-23T08:47:28;42.90;;;30.40;;
68938;SDS011;59064;45.294;11.816;2024-03-23T08:49:53;42.90;;;29.60;;
68938;SDS011;59064;45.294;11.816;2024-03-23T08:52:20;41.80;;;30.30;;
68938;SDS011;59064;45.294;11.816;2024-03-23T08:54:48;41.30;;;31.50;;
68938;SDS011;59064;45.294;11.816;2024-03-23T08:57:13;40.50;;;29.50;;
68938;SDS011;59064;45.294;11.816;2024-03-23T08:59:39;41.90;;;30.40;;
68938;SDS011;59064;45.294;11.816;2024-03-23T09:02:05;37.50;;;27.40;;
68938;SDS011;59064;45.294;11.816;2024-03-23T09:04:30;40.50;;;29.70;;
68938;SDS011;59064;45.294;11.816;2024-03-23T09:06:56;39.40;;;27.70;;
68938;SDS011;59064;45.294;11.816;2024-03-23T09:09:24;39.30;;;27.50;;
68938;SDS011;59064;45.294;11.816;2024-03-23T09:11:49;40.00;;;29.40;;
68938;SDS011;59064;45.294;11.816;2024-03-23T09:14:15;35.70;;;27.20;;
68938;SDS011;59064;45.294;11.816;2024-03-23T09:16:40;34.60;;;25.20;;
68938;SDS011;59064;45.294;11.816;2024-03-23T09:19:06;33.90;;;24.50;;
68938;SDS011;59064;45.294;11.816;2024-03-23T09:21:32;32.80;;;24.20;;
68938;SDS011;59064;45.294;11.816;2024-03-23T09:23:58;32.60;;;22.60;;
68938;SDS011;59064;45.294;11.816;2024-03-23T09:26:24;30.30;;;21.60;;
68938;SDS011;59064;45.294;11.816;2024-03-23T09:28:49;33.10;;;23.80;;
68938;SDS011;59064;45.294;11.816;2024-03-23T09:31:15;30.10;;;21.30;;
68938;SDS011;59064;45.294;11.816;2024-03-23T09:33:41;24.30;;;18.10;;
68938;SDS011;59064;45.294;11.816;2024-03-23T09:36:08;30.70;;;22.40;;
68938;SDS011;59064;45.294;11.816;2024-03-23T09:38:35;31.60;;;23.70;;
68938;SDS011;59064;45.294;11.816;2024-03-23T09:41:09;31.60;;;23.10;;
68938;SDS011;59064;45.294;11.816;2024-03-23T09:43:35;34.20;;;22.70;;
68938;SDS011;59064;45.294;11.816;2024-03-23T09:46:04;31.50;;;23.00;;
68938;SDS011;59064;45.294;11.816;2024-03-23T09:48:30;32.90;;;22.90;;
68938;SDS011;59064;45.294;11.816;2024-03-23T09:50:56;32.00;;;23.40;;
68938;SDS011;59064;45.294;11.816;2024-03-23T09:53:22;31.40;;;23.40;;
68938;SDS011;59064;45.294;11.816;2024-03-23T09:55:48;31.70;;;23.10;;
68938;SDS011;59064;45.294;11.816;2024-03-23T09:58:17;30.80;;;23.60;;
68938;SDS011;59064;45.294;11.816;2024-03-23T10:00:44;32.70;;;25.10;;
68938;SDS011;59064;45.294;11.816;2024-03-23T10:03:10;35.90;;;25.60;;
68938;SDS011;59064;45.294;11.816;2024-03-23T10:05:37;28.50;;;22.80;;
68938;SDS011;59064;45.294;11.816;2024-03-23T10:08:17;30.50;;;22.20;;
68938;SDS011;59064;45.294;11.816;2024-03-23T10:10:45;29.30;;;21.60;;
68938;SDS011;59064;45.294;11.816;2024-03-23T10:13:23;29.60;;;22.60;;
68938;SDS011;59064;45.294;11.816;2024-03-23T10:15:55;30.30;;;22.00;;
68938;SDS011;59064;45.294;11.816;2024-03-23T10:18:22;27.50;;;19.30;;
68938;SDS011;59064;45.294;11.816;2024-03-23T10:23:40;30.40;;;21.00;;
68938;SDS011;59064;45.294;11.816;2024-03-23T10:26:33;30.70;;;23.60;;
68938;SDS011;59064;45.294;11.816;2024-03-23T10:29:00;30.40;;;22.60;;
68938;SDS011;59064;45.294;11.816;2024-03-23T10:31:31;25.40;;;19.20;;
68938;SDS011;59064;45.294;11.816;2024-03-23T10:33:57;30.50;;;22.90;;
68938;SDS011;59064;45.294;11.816;2024-03-23T10:36:23;26.10;;;19.00;;
68938;SDS011;59064;45.294;11.816;2024-03-23T10:38:51;22.60;;;15.80;;
68938;SDS011;59064;45.294;11.816;2024-03-23T10:41:18;24.60;;;18.10;;
68938;SDS011;59064;45.294;11.816;2024-03-23T10:43:48;24.80;;;19.00;;
68938;SDS011;59064;45.294;11.816;2024-03-23T10:46:14;28.20;;;19.40;;
68938;SDS011;59064;45.294;11.816;2024-03-23T10:48:40;30.30;;;22.80;;
68938;SDS011;59064;45.294;11.816;2024-03-23T10:51:09;28.20;;;20.70;;
68938;SDS011;59064;45.294;11.816;2024-03-23T10:53:36;29.20;;;22.00;;
68938;SDS011;59064;45.294;11.816;2024-03-23T10:56:05;25.80;;;18.10;;
68938;SDS011;59064;45.294;11.816;2024-03-23T10:58:46;32.00;;;22.20;;
68938;SDS011;59064;45.294;11.816;2024-03-23T11:01:15;27.00;;;20.00;;
68938;SDS011;59064;45.294;11.816;2024-03-23T11:03:45;23.80;;;16.70;;
68938;SDS011;59064;45.294;11.816;2024-03-23T11:09:01;23.70;;;17.50;;
68938;SDS011;59064;45.294;11.816;2024-03-23T11:11:26;22.60;;;15.30;;
68938;SDS011;59064;45.294;11.816;2024-03-23T11:13:54;24.40;;;16.70;;
68938;SDS011;59064;45.294;11.816;2024-03-23T11:16:29;22.30;;;16.90;;
68938;SDS011;59064;45.294;11.816;2024-03-23T11:19:35;25.60;;;19.20;;
68938;SDS011;59064;45.294;11.816;2024-03-23T11:22:02;25.00;;;18.50;;
68938;SDS011;59064;45.294;11.816;2024-03-23T11:24:28;25.20;;;19.40;;
68938;SDS011;59064;45.294;11.816;2024-03-23T11:26:54;26.00;;;17.90;;
68938;SDS011;59064;45.294;11.816;2024-03-23T11:29:20;28.10;;;20.60;;
68938;SDS011;59064;45.294;11.816;2024-03-23T11:31:50;31.30;;;22.90;;
68938;SDS011;59064;45.294;11.816;2024-03-23T11:34:19;27.40;;;22.10;;
68938;SDS011;59064;45.294;11.816;2024-03-23T11:36:46;26.20;;;17.20;;
68938;SDS011;59064;45.294;11.816;2024-03-23T11:39:18;25.20;;;18.10;;
68938;SDS011;59064;45.294;11.816;2024-03-23T11:41:49;25.10;;;18.10;;
68938;SDS011;59064;45.294;11.816;2024-03-23T11:44:21;23.70;;;16.90;;
68938;SDS011;59064;45.294;11.816;2024-03-23T11:46:48;24.30;;;18.90;;
68938;SDS011;59064;45.294;11.816;2024-03-23T11:49:24;22.50;;;15.70;;
68938;SDS011;59064;45.294;11.816;2024-03-23T11:51:55;22.70;;;14.20;;
68938;SDS011;59064;45.294;11.816;2024-03-23T11:54:25;21.00;;;13.50;;
68938;SDS011;59064;45.294;11.816;2024-03-23T11:57:04;21.10;;;14.60;;
68938;SDS011;59064;45.294;11.816;2024-03-23T11:59:35;20.20;;;13.00;;
68938;SDS011;59064;45.294;11.816;2024-03-23T12:02:12;19.70;;;11.90;;
68938;SDS011;59064;45.294;11.816;2024-03-23T12:04:42;21.60;;;13.10;;
68938;SDS011;59064;45.294;11.816;2024-03-23T12:07:20;19.10;;;10.90;;
68938;SDS011;59064;45.294;11.816;2024-03-23T12:10:02;17.20;;;9.90;;
68938;SDS011;59064;45.294;11.816;2024-03-23T12:12:31;14.40;;;9.80;;
68938;SDS011;59064;45.294;11.816;2024-03-23T12:15:06;13.60;;;7.90;;
68938;SDS011;59064;45.294;11.816;2024-03-23T12:17:33;15.00;;;8.90;;
68938;SDS011;59064;45.294;11.816;2024-03-23T12:20:00;12.10;;;5.80;;
68938;SDS011;59064;45.294;11.816;2024-03-23T12:22:26;15.70;;;8.30;;
68938;SDS011;59064;45.294;11.816;2024-03-23T12:24:52;13.90;;;7.30;;
68938;SDS011;59064;45.294;11.816;2024-03-23T12:27:17;11.40;;;6.80;;
68938;SDS011;59064;45.294;11.816;2024-03-23T12:29:43;13.90;;;7.80;;
68938;SDS011;59064;45.294;11.816;2024-03-23T12:32:11;13.30;;;5.80;;
68938;SDS011;59064;45.294;11.816;2024-03-23T12:34:38;12.50;;;6.80;;
68938;SDS011;59064;45.294;11.816;2024-03-23T12:37:04;15.30;;;7.20;;
68938;SDS011;59064;45.294;11.816;2024-03-23T12:39:31;10.90;;;6.60;;
68938;SDS011;59064;45.294;11.816;2024-03-23T12:41:56;13.50;;;5.80;;
68938;SDS011;59064;45.294;11.816;2024-03-23T12:44:22;9.80;;;6.30;;
68938;SDS011;59064;45.294;11.816;2024-03-23T12:46:47;11.70;;;7.10;;
68938;SDS011;59064;45.294;11.816;2024-03-23T12:49:13;9.60;;;4.50;;
68938;SDS011;59064;45.294;11.816;2024-03-23T12:51:39;9.20;;;5.60;;
68938;SDS011;59064;45.294;11.816;2024-03-23T12:54:04;15.20;;;6.80;;
68938;SDS011;59064;45.294;11.816;2024-03-23T12:56:30;10.50;;;6.30;;
68938;SDS011;59064;45.294;11.816;2024-03-23T12:58:56;9.60;;;5.60;;
68938;SDS011;59064;45.294;11.816;2024-03-23T13:01:26;9.50;;;5.00;;
68938;SDS011;59064;45.294;11.816;2024-03-23T13:03:51;11.00;;;7.30;;
68938;SDS011;59064;45.294;11.816;2024-03-23T13:06:18;10.80;;;7.00;;
68938;SDS011;59064;45.294;11.816;2024-03-23T13:08:45;11.20;;;7.20;;
68938;SDS011;59064;45.294;11.816;2024-03-23T13:11:11;12.00;;;7.30;;
68938;SDS011;59064;45.294;11.816;2024-03-23T13:13:38;12.40;;;7.40;;
68938;SDS011;59064;45.294;11.816;2024-03-23T13:16:04;14.20;;;8.10;;
68938;SDS011;59064;45.294;11.816;2024-03-23T13:18:30;12.50;;;7.90;;
68938;SDS011;59064;45.294;11.816;2024-03-23T13:20:57;10.10;;;5.70;;
68938;SDS011;59064;45.294;11.816;2024-03-23T13:23:23;15.50;;;8.60;;
68938;SDS011;59064;45.294;11.816;2024-03-23T13:25:54;13.90;;;8.60;;
68938;SDS011;59064;45.294;11.816;2024-03-23T13:28:21;12.80;;;8.30;;
68938;SDS011;59064;45.294;11.816;2024-03-23T13:30:55;12.30;;;7.80;;
68938;SDS011;59064;45.294;11.816;2024-03-23T13:33:22;15.20;;;6.80;;
68938;SDS011;59064;45.294;11.816;2024-03-23T13:35:51;12.90;;;8.30;;
68938;SDS011;59064;45.294;11.816;2024-03-23T13:38:18;11.50;;;7.20;;
68938;SDS011;59064;45.294;11.816;2024-03-23T13:40:53;13.20;;;6.70;;
68938;SDS011;59064;45.294;11.816;2024-03-23T13:43:20;13.50;;;7.90;;
68938;SDS011;59064;45.294;11.816;2024-03-23T13:45:52;13.80;;;8.50;;
68938;SDS011;59064;45.294;11.816;2024-03-23T13:48:20;11.80;;;7.80;;
68938;SDS011;59064;45.294;11.816;2024-03-23T13:50:46;12.00;;;7.80;;
68938;SDS011;59064;45.294;11.816;2024-03-23T13:53:15;13.30;;;8.00;;
68938;SDS011;59064;45.294;11.816;2024-03-23T13:55:47;11.70;;;7.20;;
68938;SDS011;59064;45.294;11.816;2024-03-23T13:58:16;12.10;;;7.30;;
68938;SDS011;59064;45.294;11.816;2024-03-23T14:00:42;12.10;;;7.40;;
68938;SDS011;59064;45.294;11.816;2024-03-23T14:03:09;14.80;;;7.90;;
68938;SDS011;59064;45.294;11.816;2024-03-23T14:05:36;11.00;;;7.70;;
68938;SDS011;59064;45.294;11.816;2024-03-23T14:08:05;11.70;;;7.10;;
68938;SDS011;59064;45.294;11.816;2024-03-23T14:10:31;12.50;;;7.50;;
68938;SDS011;59064;45.294;11.816;2024-03-23T14:12:57;12.30;;;6.50;;
68938;SDS011;59064;45.294;11.816;2024-03-23T14:15:22;10.90;;;7.60;;
68938;SDS011;59064;45.294;11.816;2024-03-23T14:17:49;12.10;;;7.30;;
68938;SDS011;59064;45.294;11.816;2024-03-23T14:20:15;11.70;;;8.20;;
68938;SDS011;59064;45.294;11.816;2024-03-23T14:22:41;12.30;;;8.00;;
68938;SDS011;59064;45.294;11.816;2024-03-23T14:25:07;13.00;;;7.80;;
68938;SDS011;59064;45.294;11.816;2024-03-23T14:27:32;12.50;;;8.10;;
68938;SDS011;59064;45.294;11.816;2024-03-23T14:30:03;13.90;;;8.60;;
68938;SDS011;59064;45.294;11.816;2024-03-23T14:32:32;14.40;;;9.20;;
68938;SDS011;59064;45.294;11.816;2024-03-23T14:35:06;13.60;;;9.30;;
68938;SDS011;59064;45.294;11.816;2024-03-23T14:37:36;16.50;;;9.40;;
68938;SDS011;59064;45.294;11.816;2024-03-23T14:40:03;12.90;;;8.50;;
68938;SDS011;59064;45.294;11.816;2024-03-23T14:42:30;15.00;;;9.00;;
68938;SDS011;59064;45.294;11.816;2024-03-23T14:44:58;16.20;;;10.30;;
68938;SDS011;59064;45.294;11.816;2024-03-23T14:47:24;14.20;;;8.20;;
68938;SDS011;59064;45.294;11.816;2024-03-23T14:49:50;16.40;;;9.80;;
68938;SDS011;59064;45.294;11.816;2024-03-23T14:52:19;17.00;;;9.70;;
68938;SDS011;59064;45.294;11.816;2024-03-23T14:54:46;17.60;;;10.20;;
68938;SDS011;59064;45.294;11.816;2024-03-23T14:57:12;15.30;;;9.80;;
68938;SDS011;59064;45.294;11.816;2024-03-23T14:59:38;19.80;;;11.90;;
68938;SDS011;59064;45.294;11.816;2024-03-23T15:02:04;18.70;;;12.10;;
68938;SDS011;59064;45.294;11.816;2024-03-23T15:04:30;15.30;;;10.50;;
68938;SDS011;59064;45.294;11.816;2024-03-23T15:06:55;15.70;;;10.40;;
68938;SDS011;59064;45.294;11.816;2024-03-23T15:09:21;13.70;;;8.90;;
68938;SDS011;59064;45.294;11.816;2024-03-23T15:11:46;16.70;;;10.20;;
68938;SDS011;59064;45.294;11.816;2024-03-23T15:14:12;14.50;;;9.50;;